Time;durP1;ratioP1;P1;durP2;ratioP2;P2;SDS_P1;SDS_P2;PMS_P1;PMS_P2;Temp;Humidity;BMP_temperature;BMP_pressure;BME280_temperature;BME280_humidity;BME280_pressure;Samples;Min_cycle;Max_cycle;Signal;HPM_P1;HPM_P2
2022/03/25 00:01:31;;;;;;;29.30;10.63;;;;;;;9.94;34.20;96980.38;5133744;27;20513;-38
2022/03/25 00:03:58;;;;;;;24.47;12.40;;;;;;;9.90;34.40;96981.84;5133793;27;20908;-38
2022/03/25 00:06:26;;;;;;;20.87;11.20;;;;;;;9.87;34.45;97003.50;5135990;27;20445;-37
2022/03/25 00:08:53;;;;;;;23.43;12.97;;;;;;;9.68;34.94;97003.59;5137880;27;20505;-38
2022/03/25 00:11:22;;;;;;;36.53;12.87;;;;;;;9.78;35.27;97014.44;5137715;27;21012;-38
2022/03/25 00:13:49;;;;;;;18.97;12.73;;;;;;;9.74;35.50;97009.81;5137972;27;20520;-38
2022/03/25 00:16:16;;;;;;;22.40;11.37;;;;;;;9.71;34.90;97016.38;5137819;27;20511;-38
2022/03/25 00:18:44;;;;;;;19.27;10.90;;;;;;;9.71;34.90;97013.72;5137841;27;20511;-38
2022/03/25 00:21:11;;;;;;;21.50;12.20;;;;;;;9.64;35.30;96997.09;5137684;27;20476;-38
2022/03/25 00:23:38;;;;;;;25.27;12.57;;;;;;;9.48;35.36;96987.13;5137781;27;20441;-38
2022/03/25 00:26:06;;;;;;;23.67;11.90;;;;;;;9.47;35.75;97009.38;5137331;27;20443;-38
2022/03/25 00:28:35;;;;;;;21.53;11.03;;;;;;;9.35;35.83;96990.75;5137564;27;20581;-37
2022/03/25 00:31:06;;;;;;;21.57;12.30;;;;;;;9.37;35.96;97002.75;5137600;27;20438;-38
2022/03/25 00:33:33;;;;;;;20.20;10.43;;;;;;;9.28;36.54;96996.13;5137613;27;20429;-38
2022/03/25 00:36:02;;;;;;;19.80;11.83;;;;;;;9.16;36.67;96989.97;5137239;27;20437;-38
2022/03/25 00:38:29;;;;;;;19.10;10.20;;;;;;;9.05;36.91;96990.72;5137107;27;20477;-37
2022/03/25 00:40:57;;;;;;;17.87;11.50;;;;;;;8.96;36.06;96969.81;5137121;27;20801;-37
2022/03/25 00:43:26;;;;;;;23.83;11.00;;;;;;;8.95;36.56;96975.34;5137305;27;20875;-38
2022/03/25 00:45:55;;;;;;;23.10;10.50;;;;;;;8.86;36.66;96980.09;5137006;27;20524;-38
2022/03/25 00:48:22;;;;;;;17.50;10.17;;;;;;;8.85;37.40;96977.69;5136815;27;20484;-38
2022/03/25 00:50:49;;;;;;;16.47;9.10;;;;;;;8.87;38.06;96992.34;5136938;27;20467;-38
2022/03/25 00:53:18;;;;;;;19.23;10.57;;;;;;;8.93;38.13;96974.75;5137211;27;20472;-39
2022/03/25 00:55:46;;;;;;;30.80;13.60;;;;;;;8.97;38.03;96981.22;5136793;27;20460;-37
2022/03/25 00:58:15;;;;;;;30.80;13.33;;;;;;;8.99;37.93;96974.69;5136776;27;20445;-38
2022/03/25 01:00:42;;;;;;;34.90;13.80;;;;;;;8.96;38.30;96977.75;5137092;27;20469;-37
2022/03/25 01:03:11;;;;;;;36.60;17.67;;;;;;;8.85;38.02;96967.91;5136957;27;20522;-38
2022/03/25 01:05:38;;;;;;;26.47;13.73;;;;;;;8.69;38.17;96963.19;5136671;27;20797;-39
2022/03/25 01:08:08;;;;;;;20.47;12.30;;;;;;;8.63;38.38;96966.75;5136800;27;20492;-38
2022/03/25 01:10:35;;;;;;;24.60;11.40;;;;;;;8.55;37.88;96971.28;5136555;27;20477;-38
2022/03/25 01:13:03;;;;;;;25.40;11.73;;;;;;;8.56;38.18;96969.44;5137382;27;20482;-38
2022/03/25 01:15:30;;;;;;;19.00;11.00;;;;;;;8.57;38.25;96968.41;5136460;27;20449;-38
2022/03/25 01:17:57;;;;;;;21.33;12.67;;;;;;;8.61;38.52;96970.41;5136148;27;20451;-38
2022/03/25 01:20:26;;;;;;;18.00;10.97;;;;;;;8.59;39.13;96959.22;5136315;27;20488;-39
2022/03/25 01:22:53;;;;;;;13.47;9.53;;;;;;;8.60;39.20;96960.84;5136332;27;20480;-38
2022/03/25 01:25:21;;;;;;;24.17;12.33;;;;;;;8.56;39.75;96953.53;5136216;27;20445;-38
2022/03/25 01:27:48;;;;;;;22.57;11.83;;;;;;;8.56;39.86;96959.66;5136215;27;20492;-37
2022/03/25 01:30:15;;;;;;;31.37;13.07;;;;;;;8.54;39.89;96961.72;5136174;27;20441;-37
2022/03/25 01:32:43;;;;;;;26.77;12.00;;;;;;;8.53;39.74;96960.09;5136110;27;20472;-38
2022/03/25 01:35:12;;;;;;;34.93;10.70;;;;;;;8.51;39.55;96958.69;5136409;27;20557;-38
2022/03/25 01:37:40;;;;;;;23.87;12.70;;;;;;;8.48;40.05;96967.88;5136865;27;20437;-38
2022/03/25 01:40:09;;;;;;;22.80;12.80;;;;;;;8.45;39.76;96962.22;5136320;27;20497;-39
2022/03/25 01:42:39;;;;;;;34.87;14.47;;;;;;;8.37;40.32;96960.66;5136090;27;20443;-39
2022/03/25 01:45:08;;;;;;;19.80;10.77;;;;;;;8.30;40.28;96957.22;5135866;27;20437;-37
2022/03/25 01:47:36;;;;;;;16.53;10.97;;;;;;;8.16;40.59;96954.72;5135650;27;20451;-38
2022/03/25 01:50:04;;;;;;;17.07;10.10;;;;;;;8.10;40.54;96960.84;5135713;27;20441;-38
2022/03/25 01:52:34;;;;;;;19.07;9.27;;;;;;;8.00;40.36;96945.50;5135649;27;20876;-37
2022/03/25 01:55:17;;;;;;;13.20;8.93;;;;;;;7.99;40.70;96958.91;5136019;27;20900;-37
2022/03/25 01:57:45;;;;;;;21.27;9.07;;;;;;;7.98;40.77;96962.59;5135588;27;20524;-38
2022/03/25 02:00:16;;;;;;;19.30;8.80;;;;;;;7.91;40.54;96945.97;5135407;27;20441;-37
2022/03/25 02:02:44;;;;;;;16.90;9.50;;;;;;;7.71;40.61;96939.00;5135775;27;20421;-39
2022/03/25 02:05:11;;;;;;;16.83;8.87;;;;;;;7.76;40.91;96955.00;5135469;27;20498;-38
2022/03/25 02:07:39;;;;;;;19.30;10.57;;;;;;;7.68;41.44;96947.34;5135631;27;20450;-37
2022/03/25 02:10:08;;;;;;;16.03;9.00;;;;;;;7.67;41.52;96947.56;5135542;27;20437;-37
2022/03/25 02:12:37;;;;;;;26.57;10.30;;;;;;;7.68;41.69;96942.06;5135619;27;20927;-38
2022/03/25 02:15:05;;;;;;;13.80;8.87;;;;;;;7.67;41.57;96943.09;5135222;27;20437;-38
2022/03/25 02:17:33;;;;;;;19.83;10.67;;;;;;;7.59;41.45;96938.88;5135521;27;20449;-37
2022/03/25 02:20:00;;;;;;;19.23;9.30;;;;;;;7.48;41.36;96933.44;5135132;27;20445;-37
2022/03/25 02:22:29;;;;;;;16.70;9.50;;;;;;;7.45;41.36;96933.91;5135462;27;20441;-37
2022/03/25 02:24:56;;;;;;;17.70;8.50;;;;;;;7.43;41.50;96942.03;5135420;27;20456;-39
2022/03/25 02:27:25;;;;;;;20.63;10.03;;;;;;;7.44;41.88;96937.53;5135314;27;20444;-38
2022/03/25 02:29:52;;;;;;;18.97;10.13;;;;;;;7.47;41.94;96945.06;5134098;27;20485;-38
2022/03/25 02:32:21;;;;;;;21.27;12.20;;;;;;;7.46;41.98;96949.50;5134914;27;20481;-38
2022/03/25 02:34:49;;;;;;;21.43;10.80;;;;;;;7.37;41.94;96946.31;5134883;27;20807;-37
2022/03/25 02:37:17;;;;;;;15.00;9.20;;;;;;;7.29;42.46;96948.38;5135218;27;20441;-37
2022/03/25 02:39:45;;;;;;;17.53;9.70;;;;;;;7.23;42.94;96938.66;5134835;27;20967;-38
2022/03/25 02:42:13;;;;;;;17.53;9.10;;;;;;;7.19;43.15;96948.88;5134842;27;20441;-38
2022/03/25 02:44:40;;;;;;;17.33;11.20;;;;;;;7.21;43.43;96957.38;5134779;27;20448;-37
2022/03/25 02:47:07;;;;;;;12.07;7.40;;;;;;;7.18;43.29;96952.50;5134702;27;20437;-38
2022/03/25 02:49:35;;;;;;;14.07;7.70;;;;;;;7.10;43.34;96952.78;5134578;27;20489;-37
2022/03/25 02:52:02;;;;;;;18.27;8.47;;;;;;;7.16;43.26;96960.66;5134666;27;20445;-37
2022/03/25 02:54:29;;;;;;;17.90;7.90;;;;;;;7.11;43.38;96962.31;5134955;27;20438;-38
2022/03/25 02:56:59;;;;;;;15.93;7.43;;;;;;;7.03;43.31;96965.16;5134932;27;20441;-37
2022/03/25 02:59:26;;;;;;;15.27;7.67;;;;;;;6.97;43.45;96962.34;5134568;27;20441;-37
2022/03/25 03:01:53;;;;;;;11.93;8.00;;;;;;;6.90;43.23;96958.91;5134273;27;20465;-38
2022/03/25 03:04:20;;;;;;;23.10;8.43;;;;;;;6.86;43.62;96959.53;5134862;27;20449;-37
2022/03/25 03:06:48;;;;;;;17.30;7.30;;;;;;;6.89;43.92;96964.41;5134379;27;20436;-37
2022/03/25 03:09:15;;;;;;;14.73;9.03;;;;;;;6.87;44.27;96961.19;5134322;27;20485;-38
2022/03/25 03:11:43;;;;;;;17.13;7.97;;;;;;;6.84;43.67;96972.97;5134430;27;20794;-38
2022/03/25 03:14:12;;;;;;;12.43;7.73;;;;;;;6.78;43.47;96963.25;5134365;27;21023;-38
2022/03/25 03:16:39;;;;;;;14.00;8.50;;;;;;;6.72;43.56;96953.50;5134641;27;20447;-37
2022/03/25 03:19:07;;;;;;;11.33;8.00;;;;;;;6.61;43.76;96972.63;5134302;27;20529;-37
2022/03/25 03:21:35;;;;;;;46.43;8.70;;;;;;;6.49;43.44;96975.88;5134294;27;20480;-37
2022/03/25 03:24:02;;;;;;;16.03;8.10;;;;;;;6.41;43.31;96972.63;5134286;27;20473;-38
2022/03/25 03:26:29;;;;;;;23.63;9.10;;;;;;;6.36;43.73;96970.63;5134492;27;20512;-38
2022/03/25 03:28:56;;;;;;;21.90;8.03;;;;;;;6.31;43.54;96951.97;5134493;27;20511;-38
2022/03/25 03:31:25;;;;;;;11.50;6.00;;;;;;;6.43;43.61;96968.81;5134249;27;20529;-38
2022/03/25 03:33:52;;;;;;;17.27;7.80;;;;;;;6.37;43.33;96969.63;5134190;27;20448;-37
2022/03/25 03:36:19;;;;;;;18.50;8.90;;;;;;;6.36;43.05;96970.63;5134140;27;20528;-37
2022/03/25 03:38:47;;;;;;;18.90;7.87;;;;;;;6.28;42.96;96952.38;5134177;27;20437;-38
2022/03/25 03:41:15;;;;;;;11.20;9.40;;;;;;;6.28;42.93;96960.28;5136107;27;20532;-38
2022/03/25 03:43:42;;;;;;;26.33;7.83;;;;;;;6.35;42.83;96974.28;5138217;27;20449;-37
2022/03/25 03:46:10;;;;;;;18.60;7.70;;;;;;;6.33;42.67;96961.28;5138526;27;20445;-38
2022/03/25 03:48:39;;;;;;;17.37;8.97;;;;;;;6.38;43.09;96968.59;5138366;27;20476;-46
2022/03/25 03:51:06;;;;;;;24.10;9.53;;;;;;;6.41;43.73;96962.91;5138091;27;20506;-38
2022/03/25 03:53:34;;;;;;;19.23;9.47;;;;;;;6.43;44.21;96966.16;5138385;27;20520;-39
2022/03/25 03:56:01;;;;;;;16.60;9.20;;;;;;;6.45;43.81;96969.38;5138316;27;20464;-37
2022/03/25 03:58:28;;;;;;;15.80;8.10;;;;;;;6.46;43.99;96964.94;5138302;27;20433;-37
2022/03/25 04:00:56;;;;;;;21.63;9.03;;;;;;;6.44;44.52;96970.41;5138181;27;20818;-38
2022/03/25 04:03:23;;;;;;;19.60;9.37;;;;;;;6.41;44.80;96965.56;5138148;27;20445;-37
2022/03/25 04:05:52;;;;;;;19.37;10.40;;;;;;;6.40;44.30;96966.56;5138096;27;20441;-37
2022/03/25 04:08:19;;;;;;;26.40;12.63;;;;;;;6.42;44.50;96958.44;5137743;27;20436;-37
2022/03/25 04:10:46;;;;;;;16.90;10.83;;;;;;;6.40;44.54;96966.56;5137674;27;20447;-37
2022/03/25 04:13:14;;;;;;;20.43;10.23;;;;;;;6.40;44.36;96965.75;5137709;27;20502;-37
2022/03/25 04:15:41;;;;;;;17.23;8.90;;;;;;;6.37;44.87;96961.72;5137624;27;20445;-38
2022/03/25 04:18:08;;;;;;;14.07;8.20;;;;;;;6.36;44.65;96963.50;5137549;27;20437;-38
2022/03/25 04:20:36;;;;;;;15.37;8.87;;;;;;;6.37;44.87;96961.72;5137858;27;20441;-38
2022/03/25 04:23:05;;;;;;;16.47;8.10;;;;;;;6.40;44.95;96961.28;5137498;27;20437;-38
2022/03/25 04:25:32;;;;;;;17.60;9.83;;;;;;;6.44;44.98;96973.06;5137739;27;20445;-37
2022/03/25 04:28:01;;;;;;;16.93;9.47;;;;;;;6.46;45.15;96960.47;5137746;27;20536;-37
2022/03/25 04:30:30;;;;;;;29.63;9.77;;;;;;;6.51;45.04;96968.56;5137271;27;20484;-38
2022/03/25 04:32:58;;;;;;;23.63;9.60;;;;;;;6.59;44.87;96964.91;5137279;27;20869;-38
2022/03/25 04:35:28;;;;;;;28.60;10.10;;;;;;;6.60;44.86;96955.16;5137181;27;20520;-37
2022/03/25 04:37:55;;;;;;;16.40;9.30;;;;;;;6.83;44.53;96966.06;5137185;27;20527;-37
2022/03/25 04:40:26;;;;;;;26.80;12.23;;;;;;;6.98;44.41;96966.59;5137448;27;20557;-38
2022/03/25 04:42:55;;;;;;;25.77;11.40;;;;;;;7.16;44.13;96965.94;5137163;27;20512;-37
2022/03/25 04:45:23;;;;;;;20.63;11.30;;;;;;;7.46;43.74;96965.34;5136986;27;20441;-37
2022/03/25 04:47:50;;;;;;;25.63;13.53;;;;;;;7.73;43.03;96973.94;5137296;27;20449;-38
2022/03/25 04:50:18;;;;;;;32.73;14.57;;;;;;;8.04;42.58;96977.59;5136733;27;20576;-39
2022/03/25 04:52:45;;;;;;;24.70;10.40;;;;;;;8.36;41.92;96978.34;5135791;27;20441;-37
2022/03/25 04:55:13;;;;;;;25.90;13.60;;;;;;;8.71;41.56;96971.72;5136826;27;20472;-38
2022/03/25 04:57:42;;;;;;;23.63;13.87;;;;;;;9.06;41.31;96969.31;5136691;27;20437;-38
2022/03/25 05:00:11;;;;;;;35.83;17.10;;;;;;;9.45;40.80;96977.78;5136831;27;20448;-38
2022/03/25 05:02:38;;;;;;;58.30;23.60;;;;;;;9.83;40.18;96974.81;5136958;27;20429;-38
2022/03/25 05:05:07;;;;;;;46.83;23.40;;;;;;;10.18;39.75;96979.34;5136617;27;20437;-38
2022/03/25 05:07:34;;;;;;;50.13;21.00;;;;;;;10.51;39.13;96977.22;5136569;27;20928;-37
2022/03/25 05:10:02;;;;;;;50.10;16.63;;;;;;;10.88;38.07;96974.28;5136721;27;20489;-38
2022/03/25 05:12:30;;;;;;;30.30;13.70;;;;;;;11.09;37.79;96979.00;5136484;27;20444;-38
2022/03/25 05:14:59;;;;;;;15.27;9.90;;;;;;;11.34;37.60;96983.22;5136704;27;20441;-38
2022/03/25 05:17:26;;;;;;;22.23;12.70;;;;;;;11.60;37.29;96976.53;5135031;27;20449;-38
2022/03/25 05:19:54;;;;;;;15.20;9.83;;;;;;;11.94;36.46;96976.59;5136243;27;20493;-38
2022/03/25 05:22:22;;;;;;;28.07;15.40;;;;;;;12.09;35.72;96968.88;5135800;27;20437;-39
2022/03/25 05:24:49;;;;;;;22.03;13.60;;;;;;;12.39;34.93;96978.38;5136401;27;20870;-38
2022/03/25 05:27:17;;;;;;;23.20;11.60;;;;;;;12.68;34.38;96971.91;5136383;27;20433;-38
2022/03/25 05:29:45;;;;;;;21.53;12.67;;;;;;;12.95;34.49;96973.03;5135877;27;20489;-39
2022/03/25 05:32:13;;;;;;;38.00;19.77;;;;;;;13.19;33.68;96970.97;5136047;27;20443;-40
2022/03/25 05:34:41;;;;;;;20.77;10.43;;;;;;;13.47;33.39;96975.31;5135947;27;20490;-38
2022/03/25 05:37:08;;;;;;;44.57;15.73;;;;;;;13.76;33.39;96975.06;5135903;27;20819;-38
2022/03/25 05:39:36;;;;;;;26.37;13.93;;;;;;;13.98;32.94;96975.00;5135805;27;20869;-38
2022/03/25 05:42:03;;;;;;;30.50;15.90;;;;;;;14.21;32.15;96977.34;5136100;27;20452;-38
2022/03/25 05:44:31;;;;;;;35.63;18.87;;;;;;;14.43;32.25;96965.75;5135852;27;20477;-39
2022/03/25 05:46:58;;;;;;;41.20;22.10;;;;;;;14.59;32.34;96970.19;5135791;27;20445;-39
2022/03/25 05:49:27;;;;;;;31.80;19.57;;;;;;;14.73;32.27;96968.66;5135837;27;20484;-39
2022/03/25 05:51:54;;;;;;;43.60;19.73;;;;;;;14.81;32.12;96958.53;5135690;27;20445;-39
2022/03/25 05:54:21;;;;;;;29.30;18.20;;;;;;;14.98;31.58;96964.50;5135628;27;20449;-37
2022/03/25 05:56:48;;;;;;;30.03;17.40;;;;;;;14.90;31.57;96970.34;5135586;27;20444;-37
2022/03/25 05:59:16;;;;;;;27.33;12.37;;;;;;;15.00;31.38;96973.06;5135539;27;20924;-37
2022/03/25 06:01:43;;;;;;;23.30;13.73;;;;;;;15.15;31.39;96965.13;5135303;27;20980;-37
2022/03/25 06:04:10;;;;;;;24.30;13.87;;;;;;;15.34;32.42;96970.81;5135685;27;20467;-37
2022/03/25 06:06:39;;;;;;;22.50;12.23;;;;;;;15.47;31.07;96968.72;5135726;27;20438;-37
2022/03/25 06:09:06;;;;;;;21.40;12.50;;;;;;;15.56;30.28;96970.59;5135336;27;20532;-36
2022/03/25 06:11:33;;;;;;;22.87;12.90;;;;;;;15.57;31.00;96966.88;5135399;27;20451;-38
2022/03/25 06:14:00;;;;;;;15.50;9.97;;;;;;;15.72;30.44;96978.69;5135491;27;20475;-37
2022/03/25 06:16:28;;;;;;;14.97;9.87;;;;;;;15.64;31.02;96981.84;5135544;27;20441;-37
2022/03/25 06:18:55;;;;;;;24.57;9.97;;;;;;;15.62;30.51;96978.66;5135116;27;20447;-38
2022/03/25 06:21:23;;;;;;;17.40;10.67;;;;;;;15.64;30.34;96981.84;5135361;27;20449;-37
2022/03/25 06:23:52;;;;;;;27.10;10.70;;;;;;;15.73;30.07;96980.31;5135419;27;20469;-37
2022/03/25 06:26:20;;;;;;;17.47;9.53;;;;;;;15.83;29.52;96977.66;5135350;27;20447;-37
2022/03/25 06:28:47;;;;;;;21.87;10.90;;;;;;;15.95;29.81;96983.56;5134718;27;20445;-37
2022/03/25 06:31:14;;;;;;;16.17;11.03;;;;;;;16.07;28.96;96974.47;5134469;27;21005;-37
2022/03/25 06:33:42;;;;;;;13.87;9.60;;;;;;;16.28;27.47;96976.09;5135011;27;20441;-37
2022/03/25 06:36:13;;;;;;;20.83;11.53;;;;;;;16.45;26.79;96975.78;5135222;27;20437;-38
2022/03/25 06:38:40;;;;;;;22.10;11.80;;;;;;;16.46;26.37;96981.97;5135314;27;20512;-37
2022/03/25 06:41:09;;;;;;;19.90;11.00;;;;;;;16.52;26.54;96979.03;5135174;27;20437;-38
2022/03/25 06:43:37;;;;;;;19.63;9.80;;;;;;;16.65;26.91;96980.34;5134820;27;20429;-38
2022/03/25 06:46:05;;;;;;;13.83;9.97;;;;;;;16.21;27.00;96964.03;5134793;27;20828;-37
2022/03/25 06:48:33;;;;;;;21.17;11.33;;;;;;;16.02;26.85;96977.94;5134765;27;20536;-38
2022/03/25 06:51:01;;;;;;;21.30;10.80;;;;;;;15.99;27.34;96988.41;5134932;27;20492;-37
2022/03/25 06:53:29;;;;;;;14.30;8.60;;;;;;;15.95;27.53;96982.75;5134897;27;20520;-39
2022/03/25 06:55:57;;;;;;;20.33;10.17;;;;;;;16.07;26.81;96974.47;5134660;27;20924;-37
2022/03/25 06:58:26;;;;;;;18.43;10.03;;;;;;;15.94;26.91;96981.97;5134620;27;20494;-37
2022/03/25 07:00:54;;;;;;;16.63;10.30;;;;;;;16.01;26.55;96988.94;5134601;27;20556;-38
2022/03/25 07:03:22;;;;;;;20.60;10.83;;;;;;;16.20;26.07;96990.03;5134503;27;20955;-37
2022/03/25 07:05:50;;;;;;;18.03;9.23;;;;;;;16.06;26.11;96988.94;5134264;27;20444;-37
2022/03/25 07:08:18;;;;;;;17.93;10.10;;;;;;;15.94;26.80;96987.31;5134388;27;20441;-37
2022/03/25 07:10:46;;;;;;;13.43;8.90;;;;;;;15.96;26.68;96987.84;5134565;27;20572;-37
2022/03/25 07:13:14;;;;;;;12.47;8.80;;;;;;;15.71;27.18;96985.09;5134658;27;20437;-37
2022/03/25 07:15:42;;;;;;;15.63;9.10;;;;;;;15.54;27.19;96994.16;5134095;27;20489;-37
2022/03/25 07:18:10;;;;;;;16.50;9.07;;;;;;;15.71;26.71;96982.44;5134343;27;20952;-37
2022/03/25 07:20:37;;;;;;;21.33;9.97;;;;;;;15.73;27.05;96989.16;5134580;27;20444;-38
2022/03/25 07:23:04;;;;;;;17.90;9.23;;;;;;;15.77;27.28;96981.41;5134208;27;20801;-38
2022/03/25 07:25:32;;;;;;;18.70;8.57;;;;;;;15.64;27.04;96984.53;5134284;27;20603;-37
2022/03/25 07:27:59;;;;;;;19.23;11.83;;;;;;;15.70;27.92;96981.63;5134182;27;20441;-37
2022/03/25 07:30:26;;;;;;;16.83;9.53;;;;;;;15.64;28.47;96987.19;5134414;27;20563;-38
2022/03/25 07:32:55;;;;;;;15.07;8.90;;;;;;;15.45;28.85;96979.69;5134457;27;20469;-38
2022/03/25 07:35:22;;;;;;;13.83;8.30;;;;;;;15.41;28.26;96994.63;5134406;27;20797;-38
2022/03/25 07:37:49;;;;;;;15.37;9.83;;;;;;;15.20;28.30;96976.91;5134143;27;20999;-37
2022/03/25 07:40:18;;;;;;;17.00;10.00;;;;;;;15.36;28.75;96986.63;5134096;27;20449;-38
2022/03/25 07:42:46;;;;;;;32.97;10.07;;;;;;;15.42;29.03;96980.19;5134113;27;20466;-38
2022/03/25 07:45:15;;;;;;;13.90;9.63;;;;;;;15.51;29.43;96983.97;5134056;27;20449;-37
2022/03/25 07:47:43;;;;;;;13.90;9.17;;;;;;;15.56;28.86;96981.31;5133940;27;20441;-38
2022/03/25 07:50:13;;;;;;;18.63;10.77;;;;;;;15.36;29.06;96959.88;5134242;27;20512;-37
2022/03/25 07:52:42;;;;;;;14.67;8.87;;;;;;;15.59;29.15;96979.19;5133438;27;20486;-38
2022/03/25 07:55:10;;;;;;;20.10;9.80;;;;;;;15.94;29.21;96983.84;5135065;27;20468;-38
2022/03/25 07:57:38;;;;;;;21.30;10.60;;;;;;;16.09;28.14;96977.66;5133884;27;20920;-38
2022/03/25 08:00:11;;;;;;;26.03;9.70;;;;;;;16.44;28.10;96974.19;5134110;27;20497;-38
2022/03/25 08:02:39;;;;;;;14.73;9.40;;;;;;;16.83;27.50;96976.31;5133872;27;20425;-38
2022/03/25 08:05:07;;;;;;;18.63;10.57;;;;;;;17.12;27.93;96955.06;5134216;27;20445;-38
2022/03/25 08:07:48;;;;;;;17.17;10.30;;;;;;;17.18;27.92;96978.06;5134162;27;20437;-38
2022/03/25 08:10:18;;;;;;;20.43;9.93;;;;;;;17.39;27.58;96959.22;5133814;27;20479;-38
2022/03/25 08:12:45;;;;;;;15.20;9.50;;;;;;;17.40;26.76;96963.50;5133800;27;20448;-38
2022/03/25 08:15:16;;;;;;;17.57;9.67;;;;;;;17.28;26.73;96960.34;5133815;27;20490;-38
2022/03/25 08:17:48;;;;;;;49.13;29.20;;;;;;;17.28;27.31;96957.66;5133768;27;20445;-38
2022/03/25 08:20:21;;;;;;;31.60;22.63;;;;;;;17.56;27.44;96951.59;5134084;27;20528;-38
2022/03/25 08:22:50;;;;;;;17.00;9.63;;;;;;;17.94;27.28;96964.56;5134103;27;20440;-38
2022/03/25 08:28:02;;;;;;;22.07;13.40;;;;;;;17.60;26.97;96955.34;5135276;27;20908;-38
2022/03/25 08:30:30;;;;;;;16.60;12.10;;;;;;;17.79;25.86;96943.97;5137282;27;20484;-38
2022/03/25 08:32:58;;;;;;;23.40;10.83;;;;;;;17.82;26.00;96948.81;5137340;27;20443;-37
2022/03/25 08:35:25;;;;;;;22.67;10.90;;;;;;;17.99;26.10;96954.59;5137570;27;20449;-38
2022/03/25 08:37:54;;;;;;;21.90;13.80;;;;;;;18.21;25.00;96946.06;5137200;27;20539;-38
2022/03/25 08:40:22;;;;;;;31.47;13.70;;;;;;;18.31;25.51;96949.78;5137060;27;20866;-38
2022/03/25 08:42:49;;;;;;;26.53;13.13;;;;;;;18.48;25.16;96949.38;5137395;27;20445;-38
2022/03/25 08:45:17;;;;;;;20.90;12.87;;;;;;;18.66;24.73;96940.56;5137045;27;20437;-38
2022/03/25 08:47:44;;;;;;;20.20;12.30;;;;;;;18.75;24.90;96927.31;5136993;27;20977;-38
2022/03/25 08:50:14;;;;;;;18.67;11.17;;;;;;;18.95;24.62;96926.28;5137235;27;20481;-38
2022/03/25 08:52:42;;;;;;;24.77;14.10;;;;;;;19.16;24.37;96943.00;5136860;27;20441;-38
2022/03/25 08:55:11;;;;;;;22.07;14.20;;;;;;;19.07;23.63;96924.00;5136813;27;20532;-38
2022/03/25 08:57:39;;;;;;;18.47;13.17;;;;;;;19.20;24.94;96950.22;5136738;27;20448;-38
2022/03/25 09:00:10;;;;;;;24.63;15.60;;;;;;;19.09;23.28;96934.50;5136555;27;20441;-38
2022/03/25 09:02:38;;;;;;;32.00;17.67;;;;;;;19.09;23.12;96927.22;5136662;27;20512;-38
2022/03/25 09:05:06;;;;;;;23.20;14.60;;;;;;;19.15;23.06;96941.41;5137026;27;20463;-38
2022/03/25 09:07:34;;;;;;;26.77;14.50;;;;;;;19.20;24.23;96942.13;5136893;27;20516;-39
2022/03/25 09:10:01;;;;;;;23.97;14.63;;;;;;;19.29;22.81;96946.88;5137435;27;20901;-38
2022/03/25 09:12:30;;;;;;;27.63;16.20;;;;;;;19.31;23.09;96940.13;5136545;27;20445;-38
2022/03/25 09:14:57;;;;;;;25.00;14.47;;;;;;;19.27;22.56;96932.91;5136535;27;20445;-38
2022/03/25 09:17:25;;;;;;;26.73;15.40;;;;;;;19.29;22.41;96928.03;5136427;27;20445;-37
2022/03/25 09:19:52;;;;;;;22.97;14.20;;;;;;;19.21;22.37;96943.75;5136387;27;20445;-38
2022/03/25 09:22:20;;;;;;;29.83;14.50;;;;;;;19.31;23.46;96937.44;5136341;27;20448;-37
2022/03/25 09:24:47;;;;;;;23.90;14.70;;;;;;;19.42;23.51;96943.47;5136321;27;20467;-38
2022/03/25 09:27:14;;;;;;;25.07;14.00;;;;;;;19.44;23.23;96939.44;5136778;27;20441;-38
2022/03/25 09:29:44;;;;;;;27.63;14.53;;;;;;;19.27;22.95;96938.28;5136286;27;20445;-37
2022/03/25 09:32:12;;;;;;;25.73;13.10;;;;;;;19.49;24.04;96945.81;5136114;27;20511;-38
2022/03/25 09:37:24;;;;;;;30.20;13.80;;;;;;;19.75;23.57;96943.63;5136196;27;20916;-38
2022/03/25 09:39:51;;;;;;;20.03;12.57;;;;;;;19.78;23.22;96943.03;5135839;27;20438;-39
2022/03/25 09:42:20;;;;;;;27.57;13.30;;;;;;;19.56;23.36;96957.84;5136276;27;20449;-37
2022/03/25 09:44:49;;;;;;;20.70;12.67;;;;;;;19.43;22.27;96953.97;5136170;27;20444;-38
2022/03/25 09:47:18;;;;;;;27.13;14.77;;;;;;;19.15;23.09;96941.41;5136180;27;20529;-39
2022/03/25 09:49:45;;;;;;;20.00;13.07;;;;;;;19.20;23.58;96949.41;5136217;27;20471;-37
2022/03/25 09:52:12;;;;;;;21.83;13.87;;;;;;;19.42;23.58;96954.25;5135714;27;20520;-38
2022/03/25 09:54:40;;;;;;;21.37;13.80;;;;;;;19.44;22.92;96946.69;5135724;27;20441;-38
2022/03/25 09:57:07;;;;;;;22.40;14.90;;;;;;;19.59;23.29;96945.69;5135703;27;20966;-38
2022/03/25 09:59:34;;;;;;;18.50;14.40;;;;;;;19.77;22.84;96946.81;5135456;27;20441;-39
2022/03/25 10:02:04;;;;;;;28.73;15.40;;;;;;;19.94;22.27;96954.38;5135273;27;20837;-38
2022/03/25 10:04:52;;;;;;;26.80;16.37;;;;;;;19.64;22.13;96949.13;5135324;27;20536;-38
2022/03/25 10:07:21;;;;;;;27.93;15.37;;;;;;;19.48;22.27;96955.78;5129195;27;20875;-38
2022/03/25 10:09:49;;;;;;;28.87;15.63;;;;;;;19.42;22.07;96940.78;5135465;27;20448;-38
2022/03/25 10:12:23;;;;;;;19.63;13.73;;;;;;;19.33;21.31;96937.94;5135335;27;20984;-38
2022/03/25 10:14:52;;;;;;;30.63;17.20;;;;;;;19.10;21.94;96930.69;5134840;27;20960;-38
2022/03/25 10:17:21;;;;;;;34.07;17.23;;;;;;;19.01;22.19;96914.38;5135269;27;20441;-38
2022/03/25 10:19:50;;;;;;;26.73;17.50;;;;;;;19.27;22.46;96951.75;5135283;27;20524;-38
2022/03/25 10:22:18;;;;;;;31.27;17.83;;;;;;;18.90;22.10;96940.59;5136074;27;20441;-38
2022/03/25 10:24:48;;;;;;;25.37;14.87;;;;;;;18.88;22.06;96947.38;5135476;27;20441;-39
2022/03/25 10:27:20;;;;;;;27.97;14.77;;;;;;;19.03;22.24;96950.69;5135478;27;20426;-39
2022/03/25 10:29:50;;;;;;;28.37;17.77;;;;;;;18.80;21.37;96954.97;5135115;27;20436;-39
2022/03/25 10:32:19;;;;;;;28.67;15.27;;;;;;;18.66;22.32;96961.28;5135223;27;20480;-37
2022/03/25 10:35:02;;;;;;;22.10;14.40;;;;;;;18.36;22.47;96947.84;5135024;27;20441;-37
2022/03/25 10:37:30;;;;;;;21.40;14.50;;;;;;;18.61;22.53;96948.69;5134962;27;20430;-38
2022/03/25 10:39:57;;;;;;;23.77;13.73;;;;;;;18.83;22.02;96940.94;5135232;27;20445;-37
2022/03/25 10:42:24;;;;;;;26.87;17.13;;;;;;;18.82;22.66;96943.91;5135126;27;20441;-37
2022/03/25 10:44:52;;;;;;;26.20;16.07;;;;;;;18.70;22.69;96946.97;5134838;27;20524;-38
2022/03/25 10:47:27;;;;;;;28.50;16.30;;;;;;;18.49;22.81;96934.81;5134728;27;20916;-39
2022/03/25 10:50:12;;;;;;;33.87;15.90;;;;;;;18.30;23.60;96932.03;5134470;27;20445;-38
2022/03/25 10:52:40;;;;;;;27.43;16.43;;;;;;;18.51;23.47;96938.03;5134666;27;20534;-38
2022/03/25 10:55:19;;;;;;;22.07;14.17;;;;;;;18.55;22.77;96944.44;5134641;27;20441;-38
2022/03/25 10:57:51;;;;;;;36.70;16.20;;;;;;;18.77;23.25;96936.69;5134580;27;20456;-38
2022/03/25 11:00:18;;;;;;;33.70;17.20;;;;;;;18.82;22.62;96936.69;5134348;27;20493;-39
2022/03/25 11:02:46;;;;;;;25.53;15.40;;;;;;;18.95;23.10;96942.44;5134908;27;20418;-38
2022/03/25 11:05:15;;;;;;;24.47;17.10;;;;;;;18.94;22.76;96946.22;5134534;27;20433;-38
2022/03/25 11:07:44;;;;;;;33.87;15.67;;;;;;;18.97;21.46;96934.88;5134505;27;20480;-38
2022/03/25 11:10:13;;;;;;;27.00;14.83;;;;;;;19.05;21.91;96942.31;5134473;27;20441;-38
2022/03/25 11:12:45;;;;;;;30.93;17.70;;;;;;;19.05;22.40;96925.38;5134657;27;20813;-38
2022/03/25 11:15:13;;;;;;;29.83;19.60;;;;;;;18.71;22.69;96948.56;5134738;27;20441;-38
2022/03/25 11:17:43;;;;;;;24.73;16.37;;;;;;;18.85;23.19;96926.44;5134396;27;20437;-39
2022/03/25 11:20:12;;;;;;;39.30;19.00;;;;;;;18.69;22.75;96915.00;5134365;27;20429;-38
2022/03/25 11:22:45;;;;;;;34.40;18.40;;;;;;;18.71;23.31;96926.25;5134336;27;20967;-38
2022/03/25 11:25:16;;;;;;;42.53;24.37;;;;;;;18.83;22.83;96940.94;5134306;27;20792;-38
2022/03/25 11:27:50;;;;;;;24.97;14.53;;;;;;;18.76;22.37;96934.31;5134358;27;20517;-38
2022/03/25 11:30:18;;;;;;;28.53;16.10;;;;;;;18.76;23.15;96945.06;5134586;27;20897;-38
2022/03/25 11:32:49;;;;;;;27.50;17.67;;;;;;;18.62;21.96;96950.28;5134152;27;21043;-38
2022/03/25 11:35:19;;;;;;;25.67;15.83;;;;;;;18.50;22.70;96931.03;5134513;27;20449;-38